Time;durP1;ratioP1;P1;durP2;ratioP2;P2;SDS_P1;SDS_P2;PMS_P1;PMS_P2;Temp;Humidity;BMP_temperature;BMP_pressure;BME280_temperature;BME280_humidity;BME280_pressure;Samples;Min_cycle;Max_cycle;Signal;HPM_P1;HPM_P2
2022/04/11 00:02:17;;;;;;;2.45;1.25;;;;;;;6.14;62.22;100108.91;6231782;22;20038;-75
2022/04/11 00:04:43;;;;;;;4.78;1.45;;;;;;;6.02;61.93;100107.06;6280970;22;20065;-72
2022/04/11 00:07:08;;;;;;;6.25;1.33;;;;;;;5.91;62.08;100088.91;6282988;22;20019;-72
2022/04/11 00:09:34;;;;;;;5.63;1.35;;;;;;;5.96;63.03;100097.16;6266501;22;20067;-71
2022/04/11 00:12:00;;;;;;;6.63;1.58;;;;;;;5.98;62.79;100092.31;6266454;22;20011;-73
2022/04/11 00:14:25;;;;;;;3.35;1.33;;;;;;;5.94;62.94;100088.41;6297051;22;20033;-72
2022/04/11 00:16:51;;;;;;;3.05;1.42;;;;;;;5.89;62.86;100093.75;6215088;22;20016;-73
2022/04/11 00:19:16;;;;;;;4.18;1.55;;;;;;;5.84;63.83;100088.22;6264740;22;20003;-73
2022/04/11 00:21:42;;;;;;;4.68;1.60;;;;;;;5.86;64.03;100075.25;6265375;22;20014;-73
2022/04/11 00:24:08;;;;;;;2.40;1.40;;;;;;;5.86;63.77;100069.81;6282283;22;20000;-74
2022/04/11 00:26:33;;;;;;;5.85;1.70;;;;;;;5.90;64.26;100066.38;6284589;22;20003;-73
2022/04/11 00:29:00;;;;;;;2.88;1.65;;;;;;;5.97;64.32;100066.25;6229352;22;20014;-74
2022/04/11 00:31:25;;;;;;;7.20;2.08;;;;;;;6.08;64.50;100057.22;6252539;22;20070;-72
2022/04/11 00:33:51;;;;;;;8.00;1.75;;;;;;;6.10;64.76;100052.38;6280973;22;20038;-73
2022/04/11 00:36:16;;;;;;;6.07;2.05;;;;;;;6.10;64.62;100049.66;6278866;22;20082;-72
2022/04/11 00:38:41;;;;;;;5.50;2.20;;;;;;;6.00;65.10;100048.66;6280746;22;20003;-73
2022/04/11 00:41:07;;;;;;;3.85;1.95;;;;;;;5.98;65.33;100056.22;6227422;22;20019;-73
2022/04/11 00:43:35;;;;;;;6.00;1.88;;;;;;;5.87;65.37;100044.31;6279780;22;20004;-72
2022/04/11 00:46:02;;;;;;;4.10;1.90;;;;;;;5.88;65.81;100033.22;6282259;22;20427;-72
2022/04/11 00:48:27;;;;;;;6.72;1.88;;;;;;;5.92;66.52;100025.41;6258068;22;20014;-73
2022/04/11 00:50:58;;;;;;;8.23;2.00;;;;;;;5.99;66.05;100020.69;6232871;22;20011;-73
2022/04/11 00:53:25;;;;;;;8.02;1.63;;;;;;;5.91;66.85;100010.19;6255070;22;20445;-74
2022/04/11 00:55:52;;;;;;;5.43;1.95;;;;;;;5.80;66.83;100011.06;6286013;22;20003;-73
2022/04/11 00:58:18;;;;;;;12.10;2.22;;;;;;;5.72;67.14;100020.44;6230812;22;20033;-73
2022/04/11 01:00:44;;;;;;;7.68;2.53;;;;;;;5.70;67.47;100022.59;6284461;22;20000;-73
2022/04/11 01:03:09;;;;;;;6.55;2.75;;;;;;;5.67;67.58;100023.09;6230626;22;20038;-73
2022/04/11 01:05:36;;;;;;;3.55;1.88;;;;;;;5.61;67.61;100019.44;6253960;22;20007;-73
2022/04/11 01:08:06;;;;;;;5.40;1.98;;;;;;;5.62;68.50;100012.94;6229288;22;20007;-73
2022/04/11 01:10:32;;;;;;;5.18;2.10;;;;;;;5.57;67.70;100007.44;6286245;22;20078;-73
2022/04/11 01:12:58;;;;;;;10.52;2.05;;;;;;;5.59;68.53;100000.72;6256098;22;20129;-72
2022/04/11 01:15:23;;;;;;;4.57;1.70;;;;;;;5.65;68.23;99993.50;6232496;22;20007;-71
2022/04/11 01:17:48;;;;;;;12.05;2.88;;;;;;;5.60;68.52;99996.09;6256694;22;20303;-73
2022/04/11 01:20:16;;;;;;;6.63;1.83;;;;;;;5.71;69.20;100003.34;6258488;22;20074;-73
2022/04/11 01:22:43;;;;;;;9.48;2.40;;;;;;;5.71;69.07;99997.09;6284761;22;20079;-72
2022/04/11 01:25:10;;;;;;;4.20;1.90;;;;;;;5.67;69.05;99990.53;6207382;22;20004;-73
2022/04/11 01:27:37;;;;;;;6.47;2.00;;;;;;;5.68;69.19;99995.72;6285411;22;20003;-73
2022/04/11 01:30:04;;;;;;;4.82;2.08;;;;;;;5.63;68.61;99973.91;6284805;22;20134;-72
2022/04/11 01:32:29;;;;;;;3.78;1.85;;;;;;;5.66;69.43;99989.69;6259191;22;20000;-74
2022/04/11 01:34:55;;;;;;;3.75;2.00;;;;;;;5.60;69.22;99982.53;6260236;22;20029;-74
2022/04/11 01:37:21;;;;;;;5.28;2.30;;;;;;;5.65;69.11;99987.22;6284414;22;20386;-74
2022/04/11 01:39:46;;;;;;;5.65;2.10;;;;;;;5.68;68.88;99982.16;6233692;22;20011;-73
2022/04/11 01:42:12;;;;;;;5.20;2.17;;;;;;;5.76;69.25;99979.00;6255482;22;20014;-74
2022/04/11 01:44:37;;;;;;;5.70;1.92;;;;;;;5.85;69.60;99968.56;6256955;22;20015;-74
2022/04/11 01:47:03;;;;;;;3.15;1.85;;;;;;;5.90;69.31;99971.38;6283901;22;20004;-73
2022/04/11 01:49:28;;;;;;;6.40;1.73;;;;;;;5.87;68.84;99979.19;6286007;22;20011;-75
2022/04/11 01:51:54;;;;;;;6.63;2.20;;;;;;;5.82;69.10;99971.78;6285913;22;20298;-74
2022/04/11 01:54:19;;;;;;;4.25;2.00;;;;;;;5.79;69.65;99963.31;6284751;22;20020;-75
2022/04/11 01:56:44;;;;;;;4.13;2.15;;;;;;;5.75;69.70;99961.09;6283581;22;20007;-74
2022/04/11 01:59:10;;;;;;;10.35;2.42;;;;;;;5.74;70.04;99954.03;6259489;22;20008;-73
2022/04/11 02:01:35;;;;;;;4.03;2.03;;;;;;;5.76;70.01;99951.88;6257312;22;20117;-74
2022/04/11 02:04:01;;;;;;;4.30;2.05;;;;;;;5.76;70.04;99953.78;6230996;22;20007;-74
2022/04/11 02:06:26;;;;;;;6.70;2.38;;;;;;;5.71;69.77;99957.22;6235210;22;20009;-74
2022/04/11 02:08:51;;;;;;;5.72;2.42;;;;;;;5.66;69.91;99954.41;6233729;22;20085;-75
2022/04/11 02:11:17;;;;;;;8.48;2.20;;;;;;;5.64;70.00;99948.44;6285457;22;20012;-75
2022/04/11 02:13:42;;;;;;;8.68;2.80;;;;;;;5.63;70.26;99945.97;6284363;22;20051;-74
2022/04/11 02:16:08;;;;;;;4.50;1.60;;;;;;;5.67;70.11;99939.78;6286257;22;20003;-74
2022/04/11 02:18:33;;;;;;;5.40;2.70;;;;;;;5.57;71.07;99942.34;6281633;22;20007;-74
2022/04/11 02:20:59;;;;;;;5.80;2.13;;;;;;;5.70;70.73;99942.00;6231663;22;20157;-75
2022/04/11 02:23:24;;;;;;;8.27;2.47;;;;;;;5.79;70.89;99945.16;6258014;22;20028;-74
2022/04/11 02:25:50;;;;;;;6.32;2.25;;;;;;;5.83;71.17;99934.63;6231526;22;20011;-73
2022/04/11 02:28:15;;;;;;;10.07;2.53;;;;;;;5.93;71.34;99937.50;6258693;22;20012;-74
2022/04/11 02:30:41;;;;;;;4.28;2.03;;;;;;;6.05;70.66;99932.84;6233533;22;20015;-75
2022/04/11 02:33:06;;;;;;;10.15;2.40;;;;;;;6.14;70.25;99932.44;6233189;22;20007;-74
2022/04/11 02:35:31;;;;;;;8.90;2.50;;;;;;;6.28;70.87;99925.59;6255639;22;20091;-74
2022/04/11 02:37:57;;;;;;;3.03;2.00;;;;;;;6.32;70.53;99920.47;6258386;22;19999;-74
2022/04/11 02:40:22;;;;;;;4.15;2.17;;;;;;;6.25;70.08;99916.03;6282663;22;20011;-75
2022/04/11 02:42:48;;;;;;;8.68;2.42;;;;;;;6.15;70.58;99906.91;6285964;22;19999;-74
2022/04/11 02:45:15;;;;;;;6.50;2.42;;;;;;;6.15;70.32;99915.03;6278822;22;20054;-73
2022/04/11 02:47:41;;;;;;;4.78;2.40;;;;;;;6.19;70.83;99918.91;6284694;22;20007;-75
2022/04/11 02:50:08;;;;;;;7.63;2.47;;;;;;;6.29;71.03;99919.06;6253204;22;20069;-74
2022/04/11 02:52:33;;;;;;;5.57;1.85;;;;;;;6.34;71.12;99913.72;6256461;22;20032;-75
2022/04/11 02:55:00;;;;;;;3.97;2.05;;;;;;;6.30;70.11;99901.69;6254313;22;20031;-75
2022/04/11 02:57:25;;;;;;;8.25;3.00;;;;;;;6.23;71.35;99903.78;6258376;22;20015;-73
2022/04/11 02:59:51;;;;;;;8.05;2.97;;;;;;;6.16;71.17;99890.38;6256651;22;20034;-73
2022/04/11 03:02:17;;;;;;;8.52;2.47;;;;;;;6.16;71.14;99897.69;6283645;22;20053;-73
2022/04/11 03:04:43;;;;;;;5.30;2.60;;;;;;;6.21;71.13;99897.78;6257306;22;20035;-73
2022/04/11 03:07:08;;;;;;;10.05;2.30;;;;;;;6.20;71.31;99896.94;6255459;22;20011;-73
2022/04/11 03:09:34;;;;;;;6.03;2.47;;;;;;;6.24;71.28;99897.28;6258131;22;20015;-72
2022/04/11 03:12:00;;;;;;;7.78;2.70;;;;;;;6.27;71.65;99891.34;6283376;22;20008;-73
2022/04/11 03:14:26;;;;;;;9.38;2.33;;;;;;;6.26;71.21;99886.97;6255267;22;20076;-73
2022/04/11 03:16:51;;;;;;;7.70;2.50;;;;;;;6.26;71.31;99884.25;6255807;22;20015;-72
2022/04/11 03:19:17;;;;;;;8.70;2.28;;;;;;;6.26;71.42;99884.25;6279851;22;20015;-74
2022/04/11 03:21:43;;;;;;;6.10;2.38;;;;;;;6.27;71.96;99894.06;6284312;22;20014;-73
2022/04/11 03:24:08;;;;;;;9.13;2.95;;;;;;;6.27;71.98;99891.34;6256223;22;20004;-74
2022/04/11 03:26:34;;;;;;;6.90;2.45;;;;;;;6.31;71.49;99892.50;6284310;22;20000;-72
2022/04/11 03:28:59;;;;;;;7.22;2.85;;;;;;;6.32;71.73;99883.25;6231420;22;20087;-72
2022/04/11 03:31:24;;;;;;;7.80;2.05;;;;;;;6.35;71.60;99877.34;6230293;22;20077;-73
2022/04/11 03:33:50;;;;;;;7.03;2.47;;;;;;;6.37;72.28;99875.19;6256911;22;19996;-74
2022/04/11 03:36:30;;;;;;;8.18;2.30;;;;;;;6.42;71.48;99875.25;6229811;22;20019;-74
2022/04/11 03:38:56;;;;;;;6.97;1.85;;;;;;;6.41;72.26;99864.63;6234167;22;20031;-73
2022/04/11 03:41:21;;;;;;;7.75;1.95;;;;;;;6.45;71.59;99869.31;6258692;22;20085;-73
2022/04/11 03:43:46;;;;;;;9.07;2.50;;;;;;;6.54;71.66;99874.31;6282360;22;20434;-74
2022/04/11 03:46:12;;;;;;;6.95;2.50;;;;;;;6.52;72.55;99863.69;6256465;22;20114;-74
2022/04/11 03:48:37;;;;;;;7.50;2.15;;;;;;;6.49;71.93;99855.25;6283362;22;20018;-74
2022/04/11 03:51:03;;;;;;;7.20;2.03;;;;;;;6.54;72.44;99864.28;6283591;22;20004;-75
2022/04/11 03:53:29;;;;;;;6.03;2.22;;;;;;;6.54;71.77;99856.13;6256385;22;20411;-74
2022/04/11 03:55:54;;;;;;;3.75;2.22;;;;;;;6.50;72.46;99852.25;6226716;22;20006;-73
2022/04/11 03:58:19;;;;;;;4.80;2.03;;;;;;;6.46;72.66;99841.06;6250360;22;20011;-75
2022/04/11 04:00:45;;;;;;;6.28;2.47;;;;;;;6.44;72.90;99832.38;6253349;22;20035;-73
2022/04/11 04:03:12;;;;;;;3.50;1.70;;;;;;;6.56;72.42;99840.38;6252728;22;20008;-74
2022/04/11 04:05:42;;;;;;;6.78;2.65;;;;;;;6.52;72.02;99833.00;6228845;22;20075;-74
2022/04/11 04:08:09;;;;;;;9.20;3.17;;;;;;;6.39;72.68;99815.19;6258422;22;20008;-73
2022/04/11 04:10:34;;;;;;;4.53;2.30;;;;;;;6.43;72.06;99819.84;6285931;22;20003;-73
2022/04/11 04:13:00;;;;;;;5.75;2.75;;;;;;;6.47;72.65;99823.72;6254738;22;20004;-74
2022/04/11 04:15:25;;;;;;;5.90;2.20;;;;;;;6.50;73.08;99821.53;6256815;22;20011;-75
2022/04/11 04:17:55;;;;;;;4.43;2.58;;;;;;;6.52;72.40;99805.84;6254444;22;20003;-74
2022/04/11 04:20:21;;;;;;;11.15;2.10;;;;;;;6.56;72.22;99796.09;6258877;22;20007;-74
2022/04/11 04:22:47;;;;;;;7.45;1.98;;;;;;;6.68;72.84;99793.25;6259971;22;20626;-74
2022/04/11 04:25:12;;;;;;;6.35;2.17;;;;;;;6.69;71.93;99781.28;6296909;22;20055;-74
2022/04/11 04:27:38;;;;;;;8.50;2.08;;;;;;;6.69;71.94;99776.69;6298055;22;20019;-74
2022/04/11 04:30:05;;;;;;;5.07;2.15;;;;;;;6.68;71.83;99776.94;6296455;22;20011;-74
2022/04/11 04:32:30;;;;;;;7.93;1.85;;;;;;;6.69;72.27;99763.09;6271373;22;20012;-74
2022/04/11 04:34:55;;;;;;;5.28;2.17;;;;;;;6.78;72.42;99780.56;6216747;22;20031;-74
2022/04/11 04:37:21;;;;;;;7.10;2.25;;;;;;;6.85;71.55;99782.25;6261008;22;20011;-73
2022/04/11 04:39:46;;;;;;;10.73;2.65;;;;;;;6.91;72.02;99786.69;6285046;22;20141;-72
2022/04/11 04:42:12;;;;;;;10.73;2.00;;;;;;;6.96;71.20;99789.44;6257223;22;20334;-74
2022/04/11 04:44:40;;;;;;;11.30;2.50;;;;;;;7.04;70.44;99791.69;6233680;22;20027;-73
2022/04/11 04:47:06;;;;;;;5.32;1.95;;;;;;;7.04;71.27;99791.69;6256057;22;20000;-70
2022/04/11 04:49:32;;;;;;;9.25;2.10;;;;;;;7.05;70.96;99790.59;6281715;22;20003;-73
2022/04/11 04:51:58;;;;;;;5.72;2.05;;;;;;;6.92;70.51;99783.72;6281682;22;20004;-68
2022/04/11 04:54:23;;;;;;;5.70;2.22;;;;;;;6.82;70.91;99778.16;6278889;22;20102;-69
2022/04/11 04:56:49;;;;;;;3.47;1.92;;;;;;;6.72;70.83;99773.44;6254731;22;20082;-71
2022/04/11 04:59:15;;;;;;;5.70;1.90;;;;;;;6.65;71.32;99775.53;6227016;22;20054;-72
2022/04/11 05:01:40;;;;;;;6.10;2.50;;;;;;;6.49;70.85;99768.31;6254037;22;20148;-71
2022/04/11 05:04:06;;;;;;;7.22;1.90;;;;;;;6.36;71.83;99762.19;6254931;22;20029;-70
2022/04/11 05:06:31;;;;;;;4.00;1.95;;;;;;;6.32;72.55;99752.91;6282121;22;20016;-71
2022/04/11 05:08:56;;;;;;;5.80;2.53;;;;;;;6.29;71.60;99737.13;6254613;22;20023;-71
2022/04/11 05:11:22;;;;;;;3.17;1.77;;;;;;;6.26;72.46;99741.19;6255097;22;20092;-73
2022/04/11 05:13:47;;;;;;;7.40;2.28;;;;;;;6.23;71.79;99732.72;6256099;22;19999;-70
2022/04/11 05:16:15;;;;;;;4.45;2.08;;;;;;;6.33;71.78;99732.81;6253844;22;20007;-71
2022/04/11 05:18:41;;;;;;;11.23;2.45;;;;;;;6.34;71.51;99729.03;6204827;22;20015;-72
2022/04/11 05:21:06;;;;;;;5.47;2.20;;;;;;;6.52;71.87;99729.78;6256359;22;20361;-73
2022/04/11 05:23:32;;;;;;;9.30;2.10;;;;;;;6.53;70.80;99720.56;6231041;22;20003;-71
2022/04/11 05:25:58;;;;;;;4.95;2.38;;;;;;;6.56;71.11;99715.41;6255998;22;20003;-71
2022/04/11 05:28:23;;;;;;;7.68;2.17;;;;;;;6.44;70.54;99707.44;6278161;22;20004;-71
2022/04/11 05:30:49;;;;;;;6.55;2.30;;;;;;;6.31;71.12;99707.84;6231574;22;20018;-71
2022/04/11 05:33:15;;;;;;;8.10;2.20;;;;;;;6.20;70.68;99700.66;6255642;22;20082;-72
2022/04/11 05:35:41;;;;;;;5.32;2.67;;;;;;;6.04;71.76;99686.88;6282857;22;20030;-71
2022/04/11 05:38:07;;;;;;;7.00;2.10;;;;;;;5.98;71.55;99671.63;6253857;22;20017;-72
2022/04/11 05:40:33;;;;;;;7.70;2.42;;;;;;;5.93;71.63;99676.97;6282285;22;20422;-71
2022/04/11 05:43:05;;;;;;;3.20;2.15;;;;;;;5.92;72.06;99687.00;6282545;22;20004;-71
2022/04/11 05:45:33;;;;;;;6.38;2.53;;;;;;;5.86;71.77;99687.22;6231921;22;20019;-71
2022/04/11 05:47:59;;;;;;;6.72;2.30;;;;;;;5.77;71.81;99671.34;6233260;22;20026;-71
2022/04/11 05:50:26;;;;;;;3.50;2.28;;;;;;;5.87;72.55;99686.94;6256803;22;20047;-72
2022/04/11 05:52:52;;;;;;;6.25;2.90;;;;;;;5.81;71.91;99677.13;6286162;22;20077;-72
2022/04/11 05:55:17;;;;;;;5.15;2.05;;;;;;;5.81;72.40;99681.69;6257140;22;20004;-71
2022/04/11 05:57:43;;;;;;;5.07;2.35;;;;;;;5.87;72.38;99681.53;6233064;22;20008;-72
2022/04/11 06:00:09;;;;;;;4.63;2.53;;;;;;;5.96;72.13;99679.19;6250417;22;20027;-71
2022/04/11 06:02:34;;;;;;;6.20;2.67;;;;;;;6.07;71.64;99677.44;6255536;22;20004;-72
2022/04/11 06:05:09;;;;;;;5.45;2.33;;;;;;;6.18;71.21;99681.91;6283479;22;20008;-72
2022/04/11 06:07:36;;;;;;;12.05;2.50;;;;;;;6.37;70.69;99676.13;6256745;22;20008;-71
2022/04/11 06:10:04;;;;;;;5.53;2.25;;;;;;;6.50;70.61;99680.31;6256539;22;20000;-70
2022/04/11 06:12:30;;;;;;;5.38;2.45;;;;;;;6.82;70.04;99669.47;6266868;22;20059;-70
2022/04/11 06:14:55;;;;;;;7.57;2.50;;;;;;;7.03;68.81;99672.34;6271928;22;20007;-71
2022/04/11 06:17:26;;;;;;;10.90;2.38;;;;;;;7.27;67.64;99670.03;6271835;22;20023;-71
2022/04/11 06:20:00;;;;;;;6.60;2.30;;;;;;;7.39;67.19;99646.19;6244348;22;20012;-72
2022/04/11 06:22:26;;;;;;;6.22;2.53;;;;;;;7.65;66.89;99659.91;6295147;22;20007;-70
2022/04/11 06:25:08;;;;;;;5.00;2.08;;;;;;;7.86;66.09;99645.28;6285666;22;20031;-72
2022/04/11 06:27:40;;;;;;;5.38;2.25;;;;;;;8.24;64.28;99660.66;6256272;22;20441;-71
2022/04/11 06:30:06;;;;;;;7.15;2.22;;;;;;;8.34;63.89;99677.03;6257352;22;20014;-71
2022/04/11 06:32:33;;;;;;;7.70;2.55;;;;;;;8.43;63.57;99669.13;6256401;22;20008;-72
2022/04/11 06:35:05;;;;;;;8.38;2.45;;;;;;;8.47;62.69;99668.34;6281939;22;20418;-71
2022/04/11 06:37:35;;;;;;;10.45;2.95;;;;;;;8.39;62.90;99650.59;6258481;22;20003;-72
2022/04/11 06:40:02;;;;;;;4.10;2.08;;;;;;;8.56;62.60;99663.19;6256844;22;20046;-72
2022/04/11 06:42:28;;;;;;;8.38;2.80;;;;;;;8.65;62.57;99666.19;6258490;22;20014;-72
2022/04/11 06:44:53;;;;;;;7.40;3.15;;;;;;;8.72;62.48;99664.00;6283759;22;20003;-70
2022/04/11 06:47:23;;;;;;;4.70;2.55;;;;;;;8.92;61.45;99655.00;6256489;22;19999;-71
2022/04/11 06:49:48;;;;;;;7.15;3.03;;;;;;;8.96;60.81;99625.28;6253728;22;20007;-74
2022/04/11 06:52:14;;;;;;;2.80;1.92;;;;;;;8.88;60.50;99621.22;6283014;22;20010;-73
2022/04/11 06:55:02;;;;;;;3.45;2.17;;;;;;;8.80;60.31;99630.75;6284333;22;20010;-73
2022/04/11 06:57:31;;;;;;;6.65;2.75;;;;;;;8.86;60.30;99646.03;6216877;22;20015;-73
2022/04/11 06:59:56;;;;;;;5.88;2.58;;;;;;;9.01;60.18;99633.44;6259296;22;20065;-72
2022/04/11 07:02:22;;;;;;;9.73;2.63;;;;;;;9.26;60.19;99632.59;6257687;22;20000;-73
2022/04/11 07:04:49;;;;;;;9.48;2.40;;;;;;;9.47;58.53;99608.78;6259218;22;20018;-73
2022/04/11 07:07:15;;;;;;;10.20;2.25;;;;;;;9.95;57.89;99608.28;6260136;22;20007;-73
2022/04/11 07:09:40;;;;;;;8.90;2.88;;;;;;;9.88;57.20;99618.72;6235386;22;20072;-71
2022/04/11 07:12:30;;;;;;;5.85;2.63;;;;;;;9.89;56.92;99629.34;6282526;22;20015;-72
2022/04/11 07:15:02;;;;;;;4.07;2.17;;;;;;;9.85;57.09;99616.53;6286530;22;19995;-71
2022/04/11 07:17:28;;;;;;;5.68;1.98;;;;;;;10.06;57.11;99622.69;6225468;22;20604;-73
2022/04/11 07:19:54;;;;;;;6.32;2.63;;;;;;;10.00;56.02;99607.44;6253820;22;20071;-73
2022/04/11 07:22:22;;;;;;;4.93;2.40;;;;;;;10.27;56.88;99626.94;6248706;22;20007;-72
2022/04/11 07:24:48;;;;;;;5.55;2.47;;;;;;;10.48;55.18;99635.84;6225467;22;20033;-73
2022/04/11 07:27:14;;;;;;;6.35;2.53;;;;;;;10.48;54.54;99621.34;6279489;22;20019;-72
2022/04/11 07:29:39;;;;;;;6.95;2.42;;;;;;;10.54;55.18;99616.66;6252874;22;20008;-72
2022/04/11 07:32:05;;;;;;;5.63;1.85;;;;;;;10.57;54.60;99622.41;6227434;22;20008;-73
2022/04/11 07:34:31;;;;;;;4.35;1.95;;;;;;;10.61;54.18;99617.97;6253223;22;20074;-74
2022/04/11 07:37:00;;;;;;;5.38;1.95;;;;;;;10.75;54.30;99622.81;6231783;22;20018;-75
2022/04/11 07:39:29;;;;;;;4.53;1.92;;;;;;;10.95;54.48;99617.16;6232179;22;20270;-72
2022/04/11 07:42:03;;;;;;;8.43;2.28;;;;;;;11.21;53.29;99618.81;6257479;22;20012;-73
2022/04/11 07:44:31;;;;;;;7.30;1.50;;;;;;;11.32;53.53;99585.56;6259413;22;20046;-72
2022/04/11 07:46:56;;;;;;;2.45;1.55;;;;;;;11.47;52.44;99581.00;6254574;22;20027;-73
2022/04/11 07:49:22;;;;;;;9.98;2.22;;;;;;;11.76;52.42;99599.28;6227443;22;20468;-71
2022/04/11 07:51:47;;;;;;;4.50;1.50;;;;;;;11.86;51.79;99607.34;6256519;22;20012;-71
2022/04/11 07:54:16;;;;;;;4.10;1.73;;;;;;;11.96;50.63;99595.44;6261084;22;20016;-74
2022/04/11 07:56:44;;;;;;;6.97;1.75;;;;;;;11.95;50.45;99604.81;6260416;22;20018;-71
2022/04/11 07:59:15;;;;;;;5.70;1.60;;;;;;;12.16;50.24;99599.84;6258738;22;20051;-71
2022/04/11 08:02:01;;;;;;;;;;;;;;;;;;;;;
2022/04/11 08:04:27;;;;;;;6.10;1.50;;;;;;;12.62;48.77;99585.41;6258657;22;20039;-70
2022/04/11 08:07:02;;;;;;;;;;;;;;;;;;;;;
2022/04/11 08:09:36;;;;;;;4.20;1.38;;;;;;;13.05;47.50;99581.63;6286430;22;20054;-72
2022/04/11 08:12:20;;;;;;;4.03;1.60;;;;;;;13.18;47.23;99578.06;6288498;22;20007;-73
2022/04/11 08:14:53;;;;;;;3.13;1.40;;;;;;;13.08;46.70;99559.91;6237498;22;20004;-73
2022/04/11 08:17:25;;;;;;;5.55;1.33;;;;;;;13.23;46.05;99553.28;6209858;22;20008;-74
2022/04/11 08:19:50;;;;;;;5.72;1.48;;;;;;;13.28;46.03;99544.13;6237554;22;20019;-72
2022/04/11 08:22:16;;;;;;;5.82;1.20;;;;;;;13.59;45.95;99543.50;6235451;22;20008;-72
2022/04/11 08:27:37;;;;;;;7.68;1.63;;;;;;;14.22;43.65;99535.50;6287523;22;20012;-73
2022/04/11 08:30:28;;;;;;;5.65;1.95;;;;;;;14.80;43.35;99556.59;6259456;22;20011;-72
2022/04/11 08:32:59;;;;;;;4.20;2.15;;;;;;;14.96;41.13;99517.69;6260716;22;20011;-73
2022/04/11 08:35:24;;;;;;;4.65;1.92;;;;;;;15.22;41.78;99509.50;6258493;22;20007;-72
2022/04/11 08:37:55;;;;;;;6.05;1.30;;;;;;;15.60;41.01;99502.63;6287899;22;20014;-71
2022/04/11 08:40:24;;;;;;;4.75;1.30;;;;;;;15.48;41.36;99512.31;6283106;22;20072;-72
2022/04/11 08:42:50;;;;;;;3.85;1.27;;;;;;;15.21;41.51;99516.13;6257400;22;20007;-71
2022/04/11 08:45:19;;;;;;;3.28;1.40;;;;;;;15.19;40.91;99530.22;6282849;22;20010;-71
2022/04/11 08:47:48;;;;;;;9.30;1.25;;;;;;;15.42;40.57;99510.88;6284243;22;20023;-72
2022/04/11 08:50:26;;;;;;;7.68;1.95;;;;;;;16.00;39.24;99522.63;6256193;22;20042;-71
2022/04/11 08:53:00;;;;;;;4.43;1.10;;;;;;;16.81;37.38;99524.94;6256209;22;20042;-71
2022/04/11 08:55:28;;;;;;;3.97;1.65;;;;;;;17.33;35.96;99529.44;6258266;22;20078;-70
2022/04/11 08:57:57;;;;;;;3.47;1.52;;;;;;;16.87;36.43;99535.50;6260236;22;20335;-71
2022/04/11 09:00:23;;;;;;;2.67;1.27;;;;;;;16.31;37.27;99526.31;6260103;22;20042;-71
2022/04/11 09:02:48;;;;;;;8.23;1.48;;;;;;;15.88;39.01;99512.22;6260166;22;20012;-73
2022/04/11 09:05:22;;;;;;;7.57;1.23;;;;;;;16.27;38.65;99528.13;6260612;22;20498;-71
2022/04/11 09:07:51;;;;;;;4.03;1.08;;;;;;;16.91;36.89;99514.38;6284245;22;20035;-71
2022/04/11 09:10:19;;;;;;;5.97;1.30;;;;;;;17.83;34.81;99530.59;6287033;22;20056;-72
2022/04/11 09:12:52;;;;;;;2.35;1.30;;;;;;;18.82;33.65;99517.97;6284353;22;20003;-72
2022/04/11 09:15:54;;;;;;;4.93;1.17;;;;;;;20.59;31.12;99526.97;6285335;22;20011;-72
2022/04/11 09:18:19;;;;;;;4.40;1.38;;;;;;;24.11;24.90;99523.22;6259889;22;20023;-73
2022/04/11 09:21:09;;;;;;;4.68;1.30;;;;;;;26.04;22.32;99536.56;6256904;22;20023;-75
2022/04/11 09:23:37;;;;;;;3.65;1.50;;;;;;;24.86;22.81;99521.28;6257100;22;20333;-75
2022/04/11 09:26:38;;;;;;;5.65;1.60;;;;;;;24.27;24.97;99512.69;6230087;22;20000;-73
2022/04/11 09:29:04;;;;;;;3.33;1.00;;;;;;;25.45;23.69;99512.19;6195048;22;20137;-71
2022/04/11 09:31:31;;;;;;;4.68;1.30;;;;;;;24.96;23.39;99542.16;6282893;22;20037;-71
2022/04/11 09:33:57;;;;;;;5.70;1.30;;;;;;;25.64;22.74;99524.31;6284174;22;20004;-72
2022/04/11 09:36:24;;;;;;;2.35;0.80;;;;;;;28.27;20.00;99530.25;6256549;22;20082;-72
2022/04/11 09:39:00;;;;;;;2.58;1.05;;;;;;;29.64;18.84;99530.09;6256997;22;20008;-71
2022/04/11 09:41:34;;;;;;;3.97;1.20;;;;;;;29.32;18.16;99530.41;6253329;22;20011;-72
2022/04/11 09:44:18;;;;;;;;;;;;;;;28.40;18.26;99539.81;6284877;22;20013;-71
2022/04/11 09:46:44;;;;;;;2.88;1.33;;;;;;;26.34;20.29;99543.91;6283647;22;20277;-73
2022/04/11 09:49:18;;;;;;;6.68;1.95;;;;;;;25.43;21.90;99548.16;6259231;22;20073;-71
2022/04/11 09:52:04;;;;;;;5.18;1.20;;;;;;;25.61;21.96;99549.09;6255390;22;20031;-70
2022/04/11 09:54:30;;;;;;;3.85;1.35;;;;;;;25.73;22.56;99541.56;6281995;22;20049;-72
2022/04/11 09:57:20;;;;;;;3.65;1.80;;;;;;;27.11;21.47;99552.88;6255228;22;20073;-70
2022/04/11 09:59:46;;;;;;;4.85;1.10;;;;;;;30.28;17.56;99556.75;6269173;22;20007;-72
2022/04/11 10:02:17;;;;;;;3.38;0.95;;;;;;;30.26;16.92;99535.84;6283155;22;20008;-72
2022/04/11 10:04:43;;;;;;;2.28;1.08;;;;;;;28.89;18.38;99565.28;6282976;22;20026;-72
2022/04/11 10:07:12;;;;;;;3.70;1.60;;;;;;;26.63;19.72;99540.00;6281883;22;20004;-71
2022/04/11 10:09:41;;;;;;;2.78;1.02;;;;;;;24.95;21.33;99534.16;6282237;22;20448;-72
2022/04/11 10:12:08;;;;;;;3.40;1.20;;;;;;;24.30;22.37;99527.84;6256862;22;20011;-70
2022/04/11 10:14:38;;;;;;;3.65;1.10;;;;;;;23.86;22.64;99543.28;6249358;22;20004;-71
2022/04/11 10:17:04;;;;;;;7.13;1.35;;;;;;;26.71;20.13;99528.78;6282338;22;20000;-72
2022/04/11 10:19:35;;;;;;;4.13;1.15;;;;;;;29.25;18.64;99542.53;6257646;22;20003;-71
2022/04/11 10:22:11;;;;;;;2.95;1.40;;;;;;;31.47;16.03;99538.09;6255734;22;20145;-71
2022/04/11 10:24:58;;;;;;;2.97;1.20;;;;;;;33.29;14.89;99541.56;6281990;22;20075;-71
2022/04/11 10:27:29;;;;;;;3.88;1.42;;;;;;;35.13;14.23;99548.44;6283811;22;20023;-70
2022/04/11 10:29:56;;;;;;;6.38;1.65;;;;;;;37.55;11.90;99531.59;6285687;22;20004;-74
2022/04/11 10:32:24;;;;;;;4.13;1.10;;;;;;;38.48;11.59;99540.06;6279632;22;20012;-72
2022/04/11 10:34:49;;;;;;;2.53;1.00;;;;;;;39.04;11.10;99535.72;6281511;22;20019;-71
2022/04/11 10:37:19;;;;;;;3.78;1.35;;;;;;;39.43;9.88;99555.06;6262885;22;20003;-71
2022/04/11 10:39:45;;;;;;;4.97;1.17;;;;;;;36.54;11.12;99510.09;6292334;22;20003;-71
2022/04/11 10:42:15;;;;;;;8.10;1.13;;;;;;;35.36;12.10;99493.28;6265061;22;20007;-72
2022/04/11 10:45:28;;;;;;;4.22;1.30;;;;;;;33.52;13.58;99493.19;6280589;22;20004;-74
2022/04/11 10:47:53;;;;;;;7.07;1.52;;;;;;;34.41;12.97;99491.88;6199529;22;20502;-73
2022/04/11 10:50:20;;;;;;;2.75;1.10;;;;;;;35.71;12.04;99501.00;6249792;22;20010;-72
2022/04/11 10:52:52;;;;;;;5.45;1.50;;;;;;;34.11;13.09;99498.84;6274841;22;20019;-72
2022/04/11 10:55:19;;;;;;;3.42;1.15;;;;;;;32.74;14.30;99474.13;6252555;22;20007;-69
2022/04/11 10:57:55;;;;;;;3.95;1.20;;;;;;;32.54;14.61;99480.59;6249366;22;20029;-72
2022/04/11 11:00:22;;;;;;;4.55;1.27;;;;;;;33.25;14.14;99478.53;6277788;22;20031;-70
2022/04/11 11:02:48;;;;;;;5.63;1.00;;;;;;;36.00;13.19;99473.09;6272802;22;20326;-72
2022/04/11 11:05:27;;;;;;;3.17;0.90;;;;;;;38.55;11.04;99477.72;6275596;22;20010;-71
2022/04/11 11:08:13;;;;;;;3.17;1.35;;;;;;;38.86;10.08;99458.69;6246691;22;20021;-73
2022/04/11 11:10:52;;;;;;;4.00;1.10;;;;;;;39.09;9.77;99445.66;6245953;22;20008;-71
2022/04/11 11:13:36;;;;;;;2.03;1.02;;;;;;;38.80;10.16;99429.22;6274029;22;20042;-71
2022/04/11 11:16:07;;;;;;;4.95;1.63;;;;;;;38.39;10.08;99438.94;6247821;22;20007;-72
2022/04/11 11:18:51;;;;;;;5.93;1.67;;;;;;;37.98;10.17;99432.72;6277702;22;20494;-72
2022/04/11 11:21:21;;;;;;;2.95;1.17;;;;;;;37.34;10.76;99420.13;6273432;22;20012;-72
2022/04/11 11:24:04;;;;;;;5.07;1.80;;;;;;;36.85;11.23;99432.38;6268360;22;20046;-73
2022/04/11 11:26:40;;;;;;;6.50;0.90;;;;;;;36.99;11.20;99420.38;6276399;22;20129;-72
2022/04/11 11:29:17;;;;;;;7.63;1.23;;;;;;;37.26;11.11;99415.97;6276739;22;20014;-73
2022/04/11 11:31:43;;;;;;;6.88;1.20;;;;;;;36.83;11.51;99403.59;6277637;22;20000;-72
2022/04/11 11:34:11;;;;;;;2.70;1.00;;;;;;;38.15;11.19;99404.56;6225528;22;20004;-72
2022/04/11 11:36:37;;;;;;;9.27;1.60;;;;;;;37.37;10.91;99404.91;6248095;22;20087;-73
2022/04/11 11:39:23;;;;;;;5.05;1.58;;;;;;;33.57;13.08;99393.47;6250161;22;20027;-73
2022/04/11 11:41:50;;;;;;;4.45;1.20;;;;;;;33.08;14.26;99401.31;6275418;22;20091;-71
2022/04/11 11:44:17;;;;;;;5.65;1.10;;;;;;;33.01;14.19;99403.06;6249495;22;20099;-71
2022/04/11 11:46:56;;;;;;;6.00;1.15;;;;;;;30.60;15.26;99399.63;6249872;22;20316;-71
2022/04/11 11:49:23;;;;;;;4.10;1.23;;;;;;;27.48;18.02;99396.50;6276648;22;20004;-71